sensor_id;sensor_type;location;lat;lon;timestamp;temperature;humidity
3628;DHT22;1830;49.000;12.074;2024-02-16T00:00:23;6.70;99.90
3628;DHT22;1830;49.000;12.074;2024-02-16T00:02:51;6.70;99.90
3628;DHT22;1830;49.000;12.074;2024-02-16T00:05:18;6.80;99.90
3628;DHT22;1830;49.000;12.074;2024-02-16T00:07:46;6.90;99.90
3628;DHT22;1830;49.000;12.074;2024-02-16T00:10:13;6.80;99.90
3628;DHT22;1830;49.000;12.074;2024-02-16T00:12:40;6.90;99.90
3628;DHT22;1830;49.000;12.074;2024-02-16T00:15:08;6.80;99.90
3628;DHT22;1830;49.000;12.074;2024-02-16T00:17:36;6.80;99.90
3628;DHT22;1830;49.000;12.074;2024-02-16T00:20:03;6.80;99.90
3628;DHT22;1830;49.000;12.074;2024-02-16T00:22:32;6.80;99.90
3628;DHT22;1830;49.000;12.074;2024-02-16T00:25:01;6.80;99.90
3628;DHT22;1830;49.000;12.074;2024-02-16T00:27:29;6.80;99.90
3628;DHT22;1830;49.000;12.074;2024-02-16T00:29:56;6.80;99.90
3628;DHT22;1830;49.000;12.074;2024-02-16T00:32:22;6.80;99.90
3628;DHT22;1830;49.000;12.074;2024-02-16T00:34:50;6.80;99.90
3628;DHT22;1830;49.000;12.074;2024-02-16T00:37:19;6.70;99.90
3628;DHT22;1830;49.000;12.074;2024-02-16T00:39:46;6.70;99.90
3628;DHT22;1830;49.000;12.074;2024-02-16T00:42:14;6.70;99.90
3628;DHT22;1830;49.000;12.074;2024-02-16T00:44:41;6.70;99.90
3628;DHT22;1830;49.000;12.074;2024-02-16T00:47:08;6.70;99.90
3628;DHT22;1830;49.000;12.074;2024-02-16T00:49:35;6.70;99.90
3628;DHT22;1830;49.000;12.074;2024-02-16T00:52:02;6.70;99.90
3628;DHT22;1830;49.000;12.074;2024-02-16T00:54:30;6.70;99.90
3628;DHT22;1830;49.000;12.074;2024-02-16T00:56:57;6.60;99.90
3628;DHT22;1830;49.000;12.074;2024-02-16T00:59:29;6.60;99.90
3628;DHT22;1830;49.000;12.074;2024-02-16T01:01:56;6.60;99.90
3628;DHT22;1830;49.000;12.074;2024-02-16T01:04:23;6.60;99.90
3628;DHT22;1830;49.000;12.074;2024-02-16T01:06:49;6.50;99.90
3628;DHT22;1830;49.000;12.074;2024-02-16T01:09:16;6.50;99.90
3628;DHT22;1830;49.000;12.074;2024-02-16T01:11:43;6.40;99.90
3628;DHT22;1830;49.000;12.074;2024-02-16T01:14:10;6.40;99.90
3628;DHT22;1830;49.000;12.074;2024-02-16T01:16:38;6.40;99.90
3628;DHT22;1830;49.000;12.074;2024-02-16T01:19:04;6.40;99.90
3628;DHT22;1830;49.000;12.074;2024-02-16T01:21:32;6.30;99.90
3628;DHT22;1830;49.000;12.074;2024-02-16T01:23:58;6.30;99.90
3628;DHT22;1830;49.000;12.074;2024-02-16T01:26:26;6.30;99.90
3628;DHT22;1830;49.000;12.074;2024-02-16T01:28:53;6.20;99.90
3628;DHT22;1830;49.000;12.074;2024-02-16T01:31:20;6.20;99.90
3628;DHT22;1830;49.000;12.074;2024-02-16T01:33:48;6.20;99.90
3628;DHT22;1830;49.000;12.074;2024-02-16T01:36:15;6.10;99.90
3628;DHT22;1830;49.000;12.074;2024-02-16T01:38:41;5.90;99.90
3628;DHT22;1830;49.000;12.074;2024-02-16T01:41:08;5.90;99.90
3628;DHT22;1830;49.000;12.074;2024-02-16T01:43:36;6.00;99.90
3628;DHT22;1830;49.000;12.074;2024-02-16T01:46:03;6.00;99.90
3628;DHT22;1830;49.000;12.074;2024-02-16T01:48:30;6.00;99.90
3628;DHT22;1830;49.000;12.074;2024-02-16T01:50:59;6.00;99.90
3628;DHT22;1830;49.000;12.074;2024-02-16T01:53:26;5.90;99.90
3628;DHT22;1830;49.000;12.074;2024-02-16T01:55:54;5.90;99.90
3628;DHT22;1830;49.000;12.074;2024-02-16T01:58:21;5.80;99.90
3628;DHT22;1830;49.000;12.074;2024-02-16T02:00:47;5.80;99.90
3628;DHT22;1830;49.000;12.074;2024-02-16T02:03:14;5.80;99.90
3628;DHT22;1830;49.000;12.074;2024-02-16T02:05:44;5.80;99.90
3628;DHT22;1830;49.000;12.074;2024-02-16T02:08:14;5.70;99.90
3628;DHT22;1830;49.000;12.074;2024-02-16T02:10:41;5.80;99.90
3628;DHT22;1830;49.000;12.074;2024-02-16T02:13:09;5.80;99.90
3628;DHT22;1830;49.000;12.074;2024-02-16T02:15:35;5.90;99.90
3628;DHT22;1830;49.000;12.074;2024-02-16T02:18:02;5.80;99.90
3628;DHT22;1830;49.000;12.074;2024-02-16T02:20:29;5.70;99.90
3628;DHT22;1830;49.000;12.074;2024-02-16T02:22:57;5.80;99.90
3628;DHT22;1830;49.000;12.074;2024-02-16T02:25:24;5.90;99.90
3628;DHT22;1830;49.000;12.074;2024-02-16T02:27:52;6.00;99.90
3628;DHT22;1830;49.000;12.074;2024-02-16T02:30:19;6.10;99.90
3628;DHT22;1830;49.000;12.074;2024-02-16T02:32:46;6.20;99.90
3628;DHT22;1830;49.000;12.074;2024-02-16T02:35:15;6.30;99.90
3628;DHT22;1830;49.000;12.074;2024-02-16T02:37:43;6.30;99.90
3628;DHT22;1830;49.000;12.074;2024-02-16T02:40:11;6.40;99.90
3628;DHT22;1830;49.000;12.074;2024-02-16T02:42:38;6.40;99.90
3628;DHT22;1830;49.000;12.074;2024-02-16T02:45:06;6.40;99.90
3628;DHT22;1830;49.000;12.074;2024-02-16T02:47:33;6.40;99.90
3628;DHT22;1830;49.000;12.074;2024-02-16T02:50:00;6.40;99.90
3628;DHT22;1830;49.000;12.074;2024-02-16T02:52:26;6.40;99.90
3628;DHT22;1830;49.000;12.074;2024-02-16T02:54:53;6.30;99.90
3628;DHT22;1830;49.000;12.074;2024-02-16T02:57:21;6.30;99.90
3628;DHT22;1830;49.000;12.074;2024-02-16T02:59:48;6.30;99.90
3628;DHT22;1830;49.000;12.074;2024-02-16T03:02:15;6.30;99.90
3628;DHT22;1830;49.000;12.074;2024-02-16T03:04:42;6.30;99.90
3628;DHT22;1830;49.000;12.074;2024-02-16T03:07:09;6.30;99.90
3628;DHT22;1830;49.000;12.074;2024-02-16T03:09:36;6.30;99.90
3628;DHT22;1830;49.000;12.074;2024-02-16T03:12:03;6.30;99.90
3628;DHT22;1830;49.000;12.074;2024-02-16T03:14:31;6.30;99.90
3628;DHT22;1830;49.000;12.074;2024-02-16T03:16:58;6.30;99.90
3628;DHT22;1830;49.000;12.074;2024-02-16T03:19:25;6.30;99.90
3628;DHT22;1830;49.000;12.074;2024-02-16T03:21:51;6.30;99.90
3628;DHT22;1830;49.000;12.074;2024-02-16T03:24:18;6.30;99.90
3628;DHT22;1830;49.000;12.074;2024-02-16T03:26:45;6.30;99.90
3628;DHT22;1830;49.000;12.074;2024-02-16T03:29:12;6.40;99.90
3628;DHT22;1830;49.000;12.074;2024-02-16T03:31:40;6.30;99.90
3628;DHT22;1830;49.000;12.074;2024-02-16T03:34:07;6.40;99.90
3628;DHT22;1830;49.000;12.074;2024-02-16T03:36:34;6.40;99.90
3628;DHT22;1830;49.000;12.074;2024-02-16T03:39:00;6.40;99.90
3628;DHT22;1830;49.000;12.074;2024-02-16T03:41:28;6.40;99.90
3628;DHT22;1830;49.000;12.074;2024-02-16T03:43:54;6.40;99.90
3628;DHT22;1830;49.000;12.074;2024-02-16T03:46:23;6.40;99.90
3628;DHT22;1830;49.000;12.074;2024-02-16T03:48:51;6.40;99.90
3628;DHT22;1830;49.000;12.074;2024-02-16T03:51:18;6.40;99.90
3628;DHT22;1830;49.000;12.074;2024-02-16T03:53:44;6.40;99.90
3628;DHT22;1830;49.000;12.074;2024-02-16T03:56:11;6.40;99.90
3628;DHT22;1830;49.000;12.074;2024-02-16T03:58:38;6.40;99.90
3628;DHT22;1830;49.000;12.074;2024-02-16T04:01:05;6.40;99.90
3628;DHT22;1830;49.000;12.074;2024-02-16T04:03:32;6.40;99.90
3628;DHT22;1830;49.000;12.074;2024-02-16T04:06:00;6.40;99.90
3628;DHT22;1830;49.000;12.074;2024-02-16T04:08:29;6.30;99.90
3628;DHT22;1830;49.000;12.074;2024-02-16T04:10:56;6.20;99.90
3628;DHT22;1830;49.000;12.074;2024-02-16T04:13:23;6.30;99.90
3628;DHT22;1830;49.000;12.074;2024-02-16T04:15:50;6.30;99.90
3628;DHT22;1830;49.000;12.074;2024-02-16T04:18:17;6.30;99.90
3628;DHT22;1830;49.000;12.074;2024-02-16T04:20:44;6.20;99.90
3628;DHT22;1830;49.000;12.074;2024-02-16T04:23:13;6.20;99.90
3628;DHT22;1830;49.000;12.074;2024-02-16T04:25:39;6.20;99.90
3628;DHT22;1830;49.000;12.074;2024-02-16T04:28:06;6.30;99.90
3628;DHT22;1830;49.000;12.074;2024-02-16T04:30:33;6.10;99.90
3628;DHT22;1830;49.000;12.074;2024-02-16T04:33:00;6.10;99.90
3628;DHT22;1830;49.000;12.074;2024-02-16T04:35:27;6.20;99.90
3628;DHT22;1830;49.000;12.074;2024-02-16T04:37:54;6.30;99.90
3628;DHT22;1830;49.000;12.074;2024-02-16T04:40:22;6.20;99.90
3628;DHT22;1830;49.000;12.074;2024-02-16T04:42:49;6.20;99.90
3628;DHT22;1830;49.000;12.074;2024-02-16T04:45:15;6.20;99.90
3628;DHT22;1830;49.000;12.074;2024-02-16T04:47:43;6.20;99.90
3628;DHT22;1830;49.000;12.074;2024-02-16T04:50:10;6.10;99.90
3628;DHT22;1830;49.000;12.074;2024-02-16T04:52:37;6.10;99.90
3628;DHT22;1830;49.000;12.074;2024-02-16T04:55:06;6.20;99.90
3628;DHT22;1830;49.000;12.074;2024-02-16T04:57:35;6.20;99.90
3628;DHT22;1830;49.000;12.074;2024-02-16T05:00:02;6.30;99.90
3628;DHT22;1830;49.000;12.074;2024-02-16T05:02:29;6.30;99.90
3628;DHT22;1830;49.000;12.074;2024-02-16T05:04:56;6.30;99.90
3628;DHT22;1830;49.000;12.074;2024-02-16T05:07:23;6.30;99.90
3628;DHT22;1830;49.000;12.074;2024-02-16T05:09:50;6.30;99.90
3628;DHT22;1830;49.000;12.074;2024-02-16T05:12:21;6.20;99.90
3628;DHT22;1830;49.000;12.074;2024-02-16T05:14:50;6.20;99.90
3628;DHT22;1830;49.000;12.074;2024-02-16T05:17:18;6.20;99.90
3628;DHT22;1830;49.000;12.074;2024-02-16T05:19:45;6.20;99.90
3628;DHT22;1830;49.000;12.074;2024-02-16T05:22:12;6.20;99.90
3628;DHT22;1830;49.000;12.074;2024-02-16T05:24:39;6.10;99.90
3628;DHT22;1830;49.000;12.074;2024-02-16T05:27:06;6.20;99.90
3628;DHT22;1830;49.000;12.074;2024-02-16T05:29:33;6.20;99.90
3628;DHT22;1830;49.000;12.074;2024-02-16T05:32:01;6.20;99.90
3628;DHT22;1830;49.000;12.074;2024-02-16T05:34:28;6.20;99.90
3628;DHT22;1830;49.000;12.074;2024-02-16T05:36:57;6.20;99.90
3628;DHT22;1830;49.000;12.074;2024-02-16T05:39:25;6.10;99.90
3628;DHT22;1830;49.000;12.074;2024-02-16T05:41:56;6.20;99.90
3628;DHT22;1830;49.000;12.074;2024-02-16T05:44:23;6.20;99.90
3628;DHT22;1830;49.000;12.074;2024-02-16T05:46:50;6.20;99.90
3628;DHT22;1830;49.000;12.074;2024-02-16T05:49:18;6.20;99.90
3628;DHT22;1830;49.000;12.074;2024-02-16T05:51:45;6.60;99.90
3628;DHT22;1830;49.000;12.074;2024-02-16T05:54:32;6.50;99.90
3628;DHT22;1830;49.000;12.074;2024-02-16T05:56:59;6.50;99.90
3628;DHT22;1830;49.000;12.074;2024-02-16T05:59:26;6.40;99.90
3628;DHT22;1830;49.000;12.074;2024-02-16T06:01:53;6.40;99.90
3628;DHT22;1830;49.000;12.074;2024-02-16T06:04:21;6.40;99.90
3628;DHT22;1830;49.000;12.074;2024-02-16T06:06:48;6.40;99.90
3628;DHT22;1830;49.000;12.074;2024-02-16T06:09:14;6.40;99.90
3628;DHT22;1830;49.000;12.074;2024-02-16T06:11:41;6.40;99.90
3628;DHT22;1830;49.000;12.074;2024-02-16T06:14:08;6.40;99.90
3628;DHT22;1830;49.000;12.074;2024-02-16T06:16:35;6.40;99.90
3628;DHT22;1830;49.000;12.074;2024-02-16T06:19:01;6.40;99.90
3628;DHT22;1830;49.000;12.074;2024-02-16T06:21:29;6.40;99.90
3628;DHT22;1830;49.000;12.074;2024-02-16T06:23:56;6.40;99.90
3628;DHT22;1830;49.000;12.074;2024-02-16T06:26:23;6.50;99.90
3628;DHT22;1830;49.000;12.074;2024-02-16T06:28:50;6.40;99.90
3628;DHT22;1830;49.000;12.074;2024-02-16T06:31:16;6.40;99.90
3628;DHT22;1830;49.000;12.074;2024-02-16T06:33:43;6.50;99.90
3628;DHT22;1830;49.000;12.074;2024-02-16T06:36:10;6.40;99.90
3628;DHT22;1830;49.000;12.074;2024-02-16T06:38:38;6.50;99.90
3628;DHT22;1830;49.000;12.074;2024-02-16T06:41:05;6.50;99.90
3628;DHT22;1830;49.000;12.074;2024-02-16T06:43:32;6.40;99.90
3628;DHT22;1830;49.000;12.074;2024-02-16T06:45:58;6.40;99.90
3628;DHT22;1830;49.000;12.074;2024-02-16T06:48:25;6.40;99.90
3628;DHT22;1830;49.000;12.074;2024-02-16T06:50:52;6.50;99.90
3628;DHT22;1830;49.000;12.074;2024-02-16T06:53:19;6.50;99.90
3628;DHT22;1830;49.000;12.074;2024-02-16T06:55:47;6.50;99.90
3628;DHT22;1830;49.000;12.074;2024-02-16T06:58:14;6.50;99.90
3628;DHT22;1830;49.000;12.074;2024-02-16T07:00:41;6.50;99.90
3628;DHT22;1830;49.000;12.074;2024-02-16T07:03:08;6.50;99.90
3628;DHT22;1830;49.000;12.074;2024-02-16T07:05:35;6.60;99.90
3628;DHT22;1830;49.000;12.074;2024-02-16T07:08:02;6.60;99.90
3628;DHT22;1830;49.000;12.074;2024-02-16T07:10:29;6.60;99.90
3628;DHT22;1830;49.000;12.074;2024-02-16T07:12:58;6.70;99.90
3628;DHT22;1830;49.000;12.074;2024-02-16T07:15:24;6.70;99.90
3628;DHT22;1830;49.000;12.074;2024-02-16T07:17:53;6.70;99.90
3628;DHT22;1830;49.000;12.074;2024-02-16T07:20:19;6.70;99.90
3628;DHT22;1830;49.000;12.074;2024-02-16T07:22:46;6.70;99.90
3628;DHT22;1830;49.000;12.074;2024-02-16T07:25:13;6.70;99.90
3628;DHT22;1830;49.000;12.074;2024-02-16T07:27:40;6.60;99.90
3628;DHT22;1830;49.000;12.074;2024-02-16T07:30:09;6.60;99.90
3628;DHT22;1830;49.000;12.074;2024-02-16T07:32:38;6.60;99.90
3628;DHT22;1830;49.000;12.074;2024-02-16T07:35:06;6.50;99.90
3628;DHT22;1830;49.000;12.074;2024-02-16T07:37:33;6.60;99.90
3628;DHT22;1830;49.000;12.074;2024-02-16T07:40:00;6.60;99.90
3628;DHT22;1830;49.000;12.074;2024-02-16T07:42:27;6.60;99.90
3628;DHT22;1830;49.000;12.074;2024-02-16T07:44:53;6.70;99.90
3628;DHT22;1830;49.000;12.074;2024-02-16T07:47:21;6.70;99.90
3628;DHT22;1830;49.000;12.074;2024-02-16T07:49:48;6.70;99.90
3628;DHT22;1830;49.000;12.074;2024-02-16T07:52:15;6.70;99.90
3628;DHT22;1830;49.000;12.074;2024-02-16T07:54:42;6.80;99.90
3628;DHT22;1830;49.000;12.074;2024-02-16T07:57:09;6.70;99.90
3628;DHT22;1830;49.000;12.074;2024-02-16T07:59:36;6.70;99.90
3628;DHT22;1830;49.000;12.074;2024-02-16T08:02:02;6.70;99.90
3628;DHT22;1830;49.000;12.074;2024-02-16T08:04:31;6.70;99.90
3628;DHT22;1830;49.000;12.074;2024-02-16T08:06:57;6.70;99.90
3628;DHT22;1830;49.000;12.074;2024-02-16T08:09:26;6.80;99.90
3628;DHT22;1830;49.000;12.074;2024-02-16T08:11:53;6.90;99.90
3628;DHT22;1830;49.000;12.074;2024-02-16T08:14:20;6.90;99.90
3628;DHT22;1830;49.000;12.074;2024-02-16T08:16:46;6.90;99.90
3628;DHT22;1830;49.000;12.074;2024-02-16T08:19:13;6.90;99.90
3628;DHT22;1830;49.000;12.074;2024-02-16T08:21:41;7.00;99.90
3628;DHT22;1830;49.000;12.074;2024-02-16T08:24:08;6.90;99.90
3628;DHT22;1830;49.000;12.074;2024-02-16T08:26:35;7.00;99.90
3628;DHT22;1830;49.000;12.074;2024-02-16T08:29:02;7.00;99.90
3628;DHT22;1830;49.000;12.074;2024-02-16T08:31:28;7.00;99.90
3628;DHT22;1830;49.000;12.074;2024-02-16T08:33:55;7.10;99.90
3628;DHT22;1830;49.000;12.074;2024-02-16T08:36:22;7.10;99.90
3628;DHT22;1830;49.000;12.074;2024-02-16T08:38:54;7.00;99.90
3628;DHT22;1830;49.000;12.074;2024-02-16T08:41:22;7.00;99.90
3628;DHT22;1830;49.000;12.074;2024-02-16T08:43:50;7.10;99.90
3628;DHT22;1830;49.000;12.074;2024-02-16T08:46:17;7.10;99.90
3628;DHT22;1830;49.000;12.074;2024-02-16T08:48:44;7.10;99.90
3628;DHT22;1830;49.000;12.074;2024-02-16T08:51:11;7.20;99.90
3628;DHT22;1830;49.000;12.074;2024-02-16T08:53:38;7.20;99.90
3628;DHT22;1830;49.000;12.074;2024-02-16T08:56:10;7.20;99.90
3628;DHT22;1830;49.000;12.074;2024-02-16T08:58:37;7.40;99.90
3628;DHT22;1830;49.000;12.074;2024-02-16T09:01:04;7.50;99.90
3628;DHT22;1830;49.000;12.074;2024-02-16T09:03:31;7.50;99.90
3628;DHT22;1830;49.000;12.074;2024-02-16T09:06:02;7.40;99.90
3628;DHT22;1830;49.000;12.074;2024-02-16T09:08:29;7.50;99.90
3628;DHT22;1830;49.000;12.074;2024-02-16T09:10:58;7.60;99.90
3628;DHT22;1830;49.000;12.074;2024-02-16T09:13:26;7.60;99.90
3628;DHT22;1830;49.000;12.074;2024-02-16T09:15:53;7.70;99.90
3628;DHT22;1830;49.000;12.074;2024-02-16T09:18:20;7.70;99.90
3628;DHT22;1830;49.000;12.074;2024-02-16T09:20:47;7.90;99.90
3628;DHT22;1830;49.000;12.074;2024-02-16T09:23:14;8.10;99.90
3628;DHT22;1830;49.000;12.074;2024-02-16T09:25:41;8.10;99.90
3628;DHT22;1830;49.000;12.074;2024-02-16T09:28:09;8.10;99.90
3628;DHT22;1830;49.000;12.074;2024-02-16T09:30:38;8.20;99.90
3628;DHT22;1830;49.000;12.074;2024-02-16T09:33:04;8.20;99.90
3628;DHT22;1830;49.000;12.074;2024-02-16T09:35:32;8.20;99.90
3628;DHT22;1830;49.000;12.074;2024-02-16T09:37:59;8.20;99.90
3628;DHT22;1830;49.000;12.074;2024-02-16T09:40:26;8.20;99.90
3628;DHT22;1830;49.000;12.074;2024-02-16T09:42:53;8.30;99.90
3628;DHT22;1830;49.000;12.074;2024-02-16T09:45:20;8.20;99.90
3628;DHT22;1830;49.000;12.074;2024-02-16T09:47:50;8.20;99.90
3628;DHT22;1830;49.000;12.074;2024-02-16T09:50:18;8.20;99.90
3628;DHT22;1830;49.000;12.074;2024-02-16T09:52:47;8.20;99.90
3628;DHT22;1830;49.000;12.074;2024-02-16T09:55:15;8.40;99.90
3628;DHT22;1830;49.000;12.074;2024-02-16T09:57:43;8.40;99.90
3628;DHT22;1830;49.000;12.074;2024-02-16T10:00:11;8.50;99.90
3628;DHT22;1830;49.000;12.074;2024-02-16T10:02:43;8.50;99.90
3628;DHT22;1830;49.000;12.074;2024-02-16T10:05:14;8.60;99.90
3628;DHT22;1830;49.000;12.074;2024-02-16T10:07:41;8.70;99.90
3628;DHT22;1830;49.000;12.074;2024-02-16T10:10:20;8.80;99.90
3628;DHT22;1830;49.000;12.074;2024-02-16T10:12:48;9.00;99.90
3628;DHT22;1830;49.000;12.074;2024-02-16T10:15:19;9.00;99.90
3628;DHT22;1830;49.000;12.074;2024-02-16T10:17:57;9.20;99.90
3628;DHT22;1830;49.000;12.074;2024-02-16T10:20:25;9.20;99.90
3628;DHT22;1830;49.000;12.074;2024-02-16T10:23:03;9.30;99.90
3628;DHT22;1830;49.000;12.074;2024-02-16T10:25:30;9.50;99.90
3628;DHT22;1830;49.000;12.074;2024-02-16T10:27:57;9.60;99.90
3628;DHT22;1830;49.000;12.074;2024-02-16T10:30:28;9.60;99.90
3628;DHT22;1830;49.000;12.074;2024-02-16T10:32:55;9.70;99.90
3628;DHT22;1830;49.000;12.074;2024-02-16T10:35:25;9.70;99.90
3628;DHT22;1830;49.000;12.074;2024-02-16T10:37:52;9.70;99.90
3628;DHT22;1830;49.000;12.074;2024-02-16T10:40:22;9.80;99.90
3628;DHT22;1830;49.000;12.074;2024-02-16T10:42:50;9.90;99.90
3628;DHT22;1830;49.000;12.074;2024-02-16T10:45:17;9.90;99.90
3628;DHT22;1830;49.000;12.074;2024-02-16T10:47:44;10.00;99.90
3628;DHT22;1830;49.000;12.074;2024-02-16T10:50:12;10.00;99.90
3628;DHT22;1830;49.000;12.074;2024-02-16T10:52:43;10.10;99.90
3628;DHT22;1830;49.000;12.074;2024-02-16T10:55:13;10.20;99.90
3628;DHT22;1830;49.000;12.074;2024-02-16T10:57:41;10.20;99.90
3628;DHT22;1830;49.000;12.074;2024-02-16T11:00:09;10.30;99.90
3628;DHT22;1830;49.000;12.074;2024-02-16T11:02:52;10.40;99.90
3628;DHT22;1830;49.000;12.074;2024-02-16T11:05:31;10.30;99.90
3628;DHT22;1830;49.000;12.074;2024-02-16T11:08:02;10.40;99.90
3628;DHT22;1830;49.000;12.074;2024-02-16T11:10:28;10.50;99.90
3628;DHT22;1830;49.000;12.074;2024-02-16T11:13:01;10.50;99.90
3628;DHT22;1830;49.000;12.074;2024-02-16T11:15:28;10.70;99.90
3628;DHT22;1830;49.000;12.074;2024-02-16T11:17:56;10.80;99.90
3628;DHT22;1830;49.000;12.074;2024-02-16T11:20:24;10.90;99.90
3628;DHT22;1830;49.000;12.074;2024-02-16T11:22:51;11.00;99.90
3628;DHT22;1830;49.000;12.074;2024-02-16T11:25:30;11.10;99.90
3628;DHT22;1830;49.000;12.074;2024-02-16T11:27:57;11.20;99.90
3628;DHT22;1830;49.000;12.074;2024-02-16T11:30:24;11.30;99.90
3628;DHT22;1830;49.000;12.074;2024-02-16T11:32:52;11.40;99.90
3628;DHT22;1830;49.000;12.074;2024-02-16T11:35:18;11.50;99.90
3628;DHT22;1830;49.000;12.074;2024-02-16T11:37:45;11.50;99.90
3628;DHT22;1830;49.000;12.074;2024-02-16T11:40:13;11.60;99.90
3628;DHT22;1830;49.000;12.074;2024-02-16T11:42:41;11.70;99.90
3628;DHT22;1830;49.000;12.074;2024-02-16T11:45:11;11.70;99.90
3628;DHT22;1830;49.000;12.074;2024-02-16T11:47:38;11.70;99.90
3628;DHT22;1830;49.000;12.074;2024-02-16T11:50:07;11.70;99.90
3628;DHT22;1830;49.000;12.074;2024-02-16T11:52:36;11.70;99.90
3628;DHT22;1830;49.000;12.074;2024-02-16T11:55:04;11.70;99.90
3628;DHT22;1830;49.000;12.074;2024-02-16T11:57:31;11.70;99.90
3628;DHT22;1830;49.000;12.074;2024-02-16T12:00:00;11.70;99.90
3628;DHT22;1830;49.000;12.074;2024-02-16T12:02:29;11.80;99.90
3628;DHT22;1830;49.000;12.074;2024-02-16T12:04:59;11.80;99.90
3628;DHT22;1830;49.000;12.074;2024-02-16T12:07:27;11.80;99.90
3628;DHT22;1830;49.000;12.074;2024-02-16T12:09:57;11.90;99.90
3628;DHT22;1830;49.000;12.074;2024-02-16T12:12:24;11.90;99.90
3628;DHT22;1830;49.000;12.074;2024-02-16T12:14:52;12.00;99.90
3628;DHT22;1830;49.000;12.074;2024-02-16T12:17:21;12.10;99.90
3628;DHT22;1830;49.000;12.074;2024-02-16T12:19:49;12.10;99.90
3628;DHT22;1830;49.000;12.074;2024-02-16T12:22:17;12.10;99.90
3628;DHT22;1830;49.000;12.074;2024-02-16T12:24:44;12.10;99.90
3628;DHT22;1830;49.000;12.074;2024-02-16T12:27:11;12.10;99.90
3628;DHT22;1830;49.000;12.074;2024-02-16T12:29:38;12.10;99.90
3628;DHT22;1830;49.000;12.074;2024-02-16T12:32:06;12.20;99.90
3628;DHT22;1830;49.000;12.074;2024-02-16T12:34:36;12.20;99.90
3628;DHT22;1830;49.000;12.074;2024-02-16T12:37:04;12.30;99.90
3628;DHT22;1830;49.000;12.074;2024-02-16T12:39:33;12.40;99.90
3628;DHT22;1830;49.000;12.074;2024-02-16T12:42:00;12.40;99.90
3628;DHT22;1830;49.000;12.074;2024-02-16T12:44:27;12.50;99.90
3628;DHT22;1830;49.000;12.074;2024-02-16T12:46:54;12.50;99.90
3628;DHT22;1830;49.000;12.074;2024-02-16T12:49:20;12.70;99.90
3628;DHT22;1830;49.000;12.074;2024-02-16T12:51:49;12.80;99.90
3628;DHT22;1830;49.000;12.074;2024-02-16T12:54:16;12.90;99.90
3628;DHT22;1830;49.000;12.074;2024-02-16T12:56:44;12.90;99.90
3628;DHT22;1830;49.000;12.074;2024-02-16T12:59:11;13.10;99.90
3628;DHT22;1830;49.000;12.074;2024-02-16T13:01:38;13.40;99.90
3628;DHT22;1830;49.000;12.074;2024-02-16T13:04:05;13.50;99.90
3628;DHT22;1830;49.000;12.074;2024-02-16T13:06:32;13.50;99.90
3628;DHT22;1830;49.000;12.074;2024-02-16T13:09:01;13.70;99.90
3628;DHT22;1830;49.000;12.074;2024-02-16T13:11:29;13.90;99.90
3628;DHT22;1830;49.000;12.074;2024-02-16T13:13:56;14.00;99.90
3628;DHT22;1830;49.000;12.074;2024-02-16T13:16:23;13.80;99.90
3628;DHT22;1830;49.000;12.074;2024-02-16T13:18:50;13.80;99.90
3628;DHT22;1830;49.000;12.074;2024-02-16T13:21:16;13.80;99.90
3628;DHT22;1830;49.000;12.074;2024-02-16T13:23:43;13.70;99.90
3628;DHT22;1830;49.000;12.074;2024-02-16T13:26:12;13.70;99.90
3628;DHT22;1830;49.000;12.074;2024-02-16T13:28:38;13.70;99.90
3628;DHT22;1830;49.000;12.074;2024-02-16T13:31:05;13.70;99.90
3628;DHT22;1830;49.000;12.074;2024-02-16T13:33:32;13.80;99.90
3628;DHT22;1830;49.000;12.074;2024-02-16T13:35:59;13.70;99.90
3628;DHT22;1830;49.000;12.074;2024-02-16T13:38:26;13.60;99.90
3628;DHT22;1830;49.000;12.074;2024-02-16T13:40:53;13.40;99.90
3628;DHT22;1830;49.000;12.074;2024-02-16T13:43:21;13.30;99.90
3628;DHT22;1830;49.000;12.074;2024-02-16T13:45:50;13.30;99.90
3628;DHT22;1830;49.000;12.074;2024-02-16T13:48:17;13.30;99.90
3628;DHT22;1830;49.000;12.074;2024-02-16T13:50:45;13.20;99.90
3628;DHT22;1830;49.000;12.074;2024-02-16T13:53:12;13.30;99.90
3628;DHT22;1830;49.000;12.074;2024-02-16T13:55:40;13.30;99.90
3628;DHT22;1830;49.000;12.074;2024-02-16T13:58:07;13.20;99.90
3628;DHT22;1830;49.000;12.074;2024-02-16T14:00:35;13.10;99.90
3628;DHT22;1830;49.000;12.074;2024-02-16T14:03:03;13.00;99.90
3628;DHT22;1830;49.000;12.074;2024-02-16T14:05:30;13.00;99.90
3628;DHT22;1830;49.000;12.074;2024-02-16T14:07:57;13.00;99.90
3628;DHT22;1830;49.000;12.074;2024-02-16T14:10:24;13.00;99.90
3628;DHT22;1830;49.000;12.074;2024-02-16T14:12:51;12.90;99.90
3628;DHT22;1830;49.000;12.074;2024-02-16T14:15:18;13.00;99.90
3628;DHT22;1830;49.000;12.074;2024-02-16T14:17:47;13.00;99.90
3628;DHT22;1830;49.000;12.074;2024-02-16T14:20:13;13.00;99.90
3628;DHT22;1830;49.000;12.074;2024-02-16T14:22:40;13.00;99.90
3628;DHT22;1830;49.000;12.074;2024-02-16T14:25:08;13.00;99.90
3628;DHT22;1830;49.000;12.074;2024-02-16T14:27:36;13.00;99.90
3628;DHT22;1830;49.000;12.074;2024-02-16T14:30:04;13.00;99.90
3628;DHT22;1830;49.000;12.074;2024-02-16T14:32:31;12.90;99.90
3628;DHT22;1830;49.000;12.074;2024-02-16T14:35:00;13.00;99.90
3628;DHT22;1830;49.000;12.074;2024-02-16T14:37:27;13.00;99.90
3628;DHT22;1830;49.000;12.074;2024-02-16T14:39:54;13.00;99.90
3628;DHT22;1830;49.000;12.074;2024-02-16T14:42:23;13.00;99.90
3628;DHT22;1830;49.000;12.074;2024-02-16T14:44:50;13.00;99.90
3628;DHT22;1830;49.000;12.074;2024-02-16T14:47:17;13.00;99.90
3628;DHT22;1830;49.000;12.074;2024-02-16T14:49:43;12.90;99.90
3628;DHT22;1830;49.000;12.074;2024-02-16T14:52:12;12.90;99.90
3628;DHT22;1830;49.000;12.074;2024-02-16T14:54:38;12.90;99.90
3628;DHT22;1830;49.000;12.074;2024-02-16T14:57:07;12.90;99.90
3628;DHT22;1830;49.000;12.074;2024-02-16T14:59:34;13.00;99.90
3628;DHT22;1830;49.000;12.074;2024-02-16T15:02:00;12.90;99.90
3628;DHT22;1830;49.000;12.074;2024-02-16T15:04:28;12.90;99.90
3628;DHT22;1830;49.000;12.074;2024-02-16T15:06:56;12.90;99.90
3628;DHT22;1830;49.000;12.074;2024-02-16T15:09:24;12.90;99.90
3628;DHT22;1830;49.000;12.074;2024-02-16T15:11:50;12.80;99.90
3628;DHT22;1830;49.000;12.074;2024-02-16T15:14:17;12.80;99.90
3628;DHT22;1830;49.000;12.074;2024-02-16T15:16:44;12.80;99.90
3628;DHT22;1830;49.000;12.074;2024-02-16T15:19:18;12.80;99.90
3628;DHT22;1830;49.000;12.074;2024-02-16T15:22:22;12.80;99.90
3628;DHT22;1830;49.000;12.074;2024-02-16T15:24:51;12.80;99.90
3628;DHT22;1830;49.000;12.074;2024-02-16T15:27:18;12.80;99.90
3628;DHT22;1830;49.000;12.074;2024-02-16T15:29:45;12.70;99.90
3628;DHT22;1830;49.000;12.074;2024-02-16T15:32:11;12.70;99.90
3628;DHT22;1830;49.000;12.074;2024-02-16T15:34:38;12.60;99.90
3628;DHT22;1830;49.000;12.074;2024-02-16T15:37:08;12.60;99.90
3628;DHT22;1830;49.000;12.074;2024-02-16T15:39:35;12.60;99.90
3628;DHT22;1830;49.000;12.074;2024-02-16T15:42:04;12.50;99.90
3628;DHT22;1830;49.000;12.074;2024-02-16T15:44:32;12.50;99.90
3628;DHT22;1830;49.000;12.074;2024-02-16T15:47:00;12.50;99.90
3628;DHT22;1830;49.000;12.074;2024-02-16T15:49:27;12.50;99.90
3628;DHT22;1830;49.000;12.074;2024-02-16T15:51:54;12.40;99.90
3628;DHT22;1830;49.000;12.074;2024-02-16T15:54:21;12.40;99.90
3628;DHT22;1830;49.000;12.074;2024-02-16T15:56:51;12.30;99.90
3628;DHT22;1830;49.000;12.074;2024-02-16T15:59:19;12.40;99.90